Time;durP1;ratioP1;P1;durP2;ratioP2;P2;SDS_P1;SDS_P2;PMS_P1;PMS_P2;Temp;Humidity;BMP_temperature;BMP_pressure;BME280_temperature;BME280_humidity;BME280_pressure;Samples;Min_cycle;Max_cycle;Signal;HPM_P1;HPM_P2
2022/07/28 00:00:34;;;;;;;1.30;1.20;;;13.40;97.30;;;;;;5092354;28;20547;-84
2022/07/28 00:03:00;;;;;;;1.63;1.37;;;13.40;97.30;;;;;;5093194;28;20413;-84
2022/07/28 00:05:26;;;;;;;1.50;1.30;;;13.30;97.30;;;;;;5097910;22;20251;-83
2022/07/28 00:07:52;;;;;;;2.17;1.70;;;13.30;97.30;;;;;;5073968;28;21195;-83
2022/07/28 00:10:17;;;;;;;2.90;2.13;;;13.20;97.30;;;;;;5073843;28;20175;-83
2022/07/28 00:12:43;;;;;;;1.60;1.20;;;13.20;97.30;;;;;;5073322;28;20178;-83
2022/07/28 00:15:09;;;;;;;1.53;1.30;;;13.10;97.30;;;;;;5073697;28;20179;-83
2022/07/28 00:17:35;;;;;;;1.40;1.30;;;13.00;97.30;;;;;;5073507;28;20417;-84
2022/07/28 00:20:01;;;;;;;1.20;1.10;;;13.00;97.30;;;;;;5073179;28;20832;-83
2022/07/28 00:22:26;;;;;;;1.30;1.20;;;13.00;97.30;;;;;;5073210;28;20414;-83
2022/07/28 00:24:52;;;;;;;3.07;1.57;;;12.90;97.30;;;;;;5073525;28;20160;-83
2022/07/28 00:27:17;;;;;;;1.40;1.10;;;12.90;97.30;;;;;;5072828;28;20235;-83
2022/07/28 00:29:43;;;;;;;1.23;1.20;;;12.90;97.30;;;;;;5072850;28;20704;-83
2022/07/28 00:32:09;;;;;;;2.97;1.40;;;12.90;97.30;;;;;;5072061;28;20179;-83
2022/07/28 00:34:35;;;;;;;1.90;1.80;;;12.80;97.30;;;;;;5073535;28;20467;-83
2022/07/28 00:37:01;;;;;;;2.07;1.60;;;12.80;97.30;;;;;;5072351;28;20209;-83
2022/07/28 00:39:26;;;;;;;1.40;1.30;;;12.80;97.30;;;;;;5073154;28;20821;-84
2022/07/28 00:41:52;;;;;;;1.00;1.00;;;12.80;97.30;;;;;;5073118;28;20174;-83
2022/07/28 00:44:17;;;;;;;1.43;1.33;;;12.80;97.30;;;;;;5073178;28;20529;-83
2022/07/28 00:46:44;;;;;;;1.87;1.40;;;12.70;97.30;;;;;;5072958;28;20191;-83
2022/07/28 00:49:09;;;;;;;1.30;1.20;;;12.70;97.30;;;;;;5072294;28;20191;-83
2022/07/28 00:51:35;;;;;;;1.60;1.50;;;12.60;97.30;;;;;;5072355;28;20413;-83
2022/07/28 00:54:03;;;;;;;1.50;1.40;;;12.60;97.30;;;;;;5073056;28;20236;-83
2022/07/28 00:56:29;;;;;;;1.10;1.00;;;12.60;97.30;;;;;;5072561;28;20502;-83
2022/07/28 00:58:54;;;;;;;1.20;1.10;;;12.50;97.30;;;;;;5072611;28;20973;-83
2022/07/28 01:01:21;;;;;;;1.43;1.33;;;12.50;97.30;;;;;;5072526;28;20478;-83
2022/07/28 01:03:56;;;;;;;1.63;1.50;;;12.50;97.30;;;;;;5072487;28;20179;-83
2022/07/28 01:06:28;;;;;;;1.80;1.70;;;12.50;97.30;;;;;;5090084;28;20535;-83
2022/07/28 01:08:57;;;;;;;1.27;1.17;;;12.50;97.30;;;;;;5093889;28;20921;-83
2022/07/28 01:11:53;;;;;;;1.40;1.40;;;12.50;97.30;;;;;;5092280;28;20779;-83
2022/07/28 01:14:36;;;;;;;1.20;1.10;;;12.50;97.30;;;;;;5092608;28;20401;-83
2022/07/28 01:17:16;;;;;;;1.77;1.37;;;12.50;97.30;;;;;;5092428;28;20428;-83
2022/07/28 01:20:16;;;;;;;1.53;1.43;;;12.50;97.30;;;;;;5092110;28;20437;-83
2022/07/28 01:23:20;;;;;;;1.30;1.20;;;12.50;97.30;;;;;;5092214;28;20423;-82
2022/07/28 01:26:16;;;;;;;1.10;1.00;;;12.40;97.30;;;;;;5050987;28;20420;-83
2022/07/28 01:28:58;;;;;;;1.10;1.00;;;12.40;97.30;;;;;;5092328;28;20456;-83
2022/07/28 01:31:26;;;;;;;1.40;1.30;;;12.40;97.30;;;;;;5091964;28;20401;-83
2022/07/28 01:33:59;;;;;;;1.57;1.50;;;12.40;97.30;;;;;;5091661;28;20442;-83
2022/07/28 01:36:28;;;;;;;1.33;1.23;;;12.30;97.30;;;;;;5091580;28;20427;-84
2022/07/28 01:38:54;;;;;;;1.60;1.50;;;12.30;97.30;;;;;;5091380;28;20440;-83
2022/07/28 01:41:23;;;;;;;1.93;1.50;;;12.30;97.30;;;;;;5091446;28;20447;-83
2022/07/28 01:44:01;;;;;;;1.33;1.30;;;12.20;97.30;;;;;;5091826;28;20805;-83
2022/07/28 01:46:28;;;;;;;1.90;1.80;;;12.20;97.30;;;;;;5091757;28;20874;-83
2022/07/28 01:48:56;;;;;;;1.30;1.30;;;12.10;97.30;;;;;;5091656;28;20447;-83
2022/07/28 01:51:26;;;;;;;1.43;1.33;;;12.10;97.30;;;;;;5091909;28;20796;-83
2022/07/28 01:53:54;;;;;;;2.80;1.20;;;12.10;97.30;;;;;;5091986;28;20409;-83
2022/07/28 01:56:21;;;;;;;1.47;1.47;;;12.00;97.30;;;;;;5091898;28;20782;-83
2022/07/28 01:58:49;;;;;;;1.30;1.20;;;12.00;97.30;;;;;;5091890;28;20440;-83
2022/07/28 02:01:16;;;;;;;1.13;1.03;;;11.90;97.30;;;;;;5093338;28;20404;-83
2022/07/28 02:03:43;;;;;;;1.77;1.70;;;11.90;97.30;;;;;;5091726;28;20416;-83
2022/07/28 02:06:10;;;;;;;1.23;1.13;;;11.90;97.30;;;;;;5091688;28;20479;-83
2022/07/28 02:08:38;;;;;;;1.20;1.10;;;11.90;97.30;;;;;;5091578;28;20464;-82
2022/07/28 02:13:48;;;;;;;1.67;1.63;;;11.80;97.30;;;;;;5093163;28;20475;-83
2022/07/28 02:16:16;;;;;;;1.53;1.50;;;11.80;97.30;;;;;;5091879;28;20413;-83
2022/07/28 02:18:44;;;;;;;1.60;1.50;;;11.80;97.30;;;;;;5074876;28;20519;-83
2022/07/28 02:21:10;;;;;;;1.60;1.60;;;11.80;97.30;;;;;;5091572;28;20763;-84
2022/07/28 02:23:37;;;;;;;3.57;1.67;;;11.80;97.30;;;;;;5091474;28;20455;-82
2022/07/28 02:26:08;;;;;;;1.30;1.30;;;11.80;97.30;;;;;;5091503;28;20420;-83
2022/07/28 02:28:34;;;;;;;1.40;1.30;;;11.80;97.30;;;;;;5092999;28;20433;-83
2022/07/28 02:31:18;;;;;;;3.27;1.53;;;11.80;97.30;;;;;;5091310;28;20405;-83
2022/07/28 02:33:45;;;;;;;2.60;2.07;;;11.80;97.30;;;;;;5091308;28;20476;-83
2022/07/28 02:36:30;;;;;;;1.50;1.40;;;11.80;97.30;;;;;;5092070;28;20445;-83
2022/07/28 02:39:03;;;;;;;1.50;1.40;;;11.80;97.30;;;;;;5091841;28;20440;-83
2022/07/28 02:41:32;;;;;;;1.30;1.30;;;11.80;97.30;;;;;;5091872;28;20413;-83
2022/07/28 02:44:00;;;;;;;1.40;1.37;;;11.70;97.30;;;;;;5091514;28;20777;-83
2022/07/28 02:46:31;;;;;;;1.33;1.23;;;11.70;97.30;;;;;;5091315;28;20920;-83
2022/07/28 02:49:05;;;;;;;1.10;1.00;;;11.70;97.30;;;;;;5091397;28;20543;-83
2022/07/28 02:51:33;;;;;;;4.40;1.87;;;11.70;97.30;;;;;;5092093;28;20401;-83
2022/07/28 02:54:00;;;;;;;1.50;1.43;;;11.70;97.30;;;;;;5092552;28;20447;-83
2022/07/28 02:56:26;;;;;;;1.70;1.53;;;11.60;97.30;;;;;;5094460;28;20481;-82
2022/07/28 02:58:53;;;;;;;1.20;1.10;;;11.60;97.30;;;;;;5095205;28;20439;-83
2022/07/28 03:01:20;;;;;;;18.03;2.50;;;11.50;97.30;;;;;;5095635;28;20404;-83
2022/07/28 03:03:47;;;;;;;1.40;1.30;;;11.50;97.30;;;;;;5094672;28;20827;-83
2022/07/28 03:06:15;;;;;;;1.13;1.03;;;11.40;97.30;;;;;;5094613;28;20559;-83
2022/07/28 03:08:41;;;;;;;1.87;1.77;;;11.40;97.30;;;;;;5094264;28;20489;-83
2022/07/28 03:11:12;;;;;;;1.53;1.43;;;11.40;97.30;;;;;;5094615;28;20424;-83
2022/07/28 03:13:38;;;;;;;2.77;1.80;;;11.30;97.30;;;;;;5094815;28;20179;-83
2022/07/28 03:16:05;;;;;;;1.40;1.30;;;11.30;97.30;;;;;;5094216;28;20413;-83
2022/07/28 03:18:30;;;;;;;3.40;1.10;;;11.30;97.30;;;;;;5094589;28;20436;-83
2022/07/28 03:20:56;;;;;;;3.67;1.77;;;11.30;97.30;;;;;;5083601;28;20409;-83
2022/07/28 03:23:28;;;;;;;1.40;1.30;;;11.20;97.30;;;;;;5074287;28;20238;-83
2022/07/28 03:25:59;;;;;;;1.40;1.30;;;11.20;97.30;;;;;;5085450;28;20408;-82
2022/07/28 03:28:26;;;;;;;1.33;1.23;;;11.20;97.30;;;;;;5094438;28;20515;-83
2022/07/28 03:31:00;;;;;;;1.10;1.00;;;11.30;97.30;;;;;;5094841;28;20404;-83
2022/07/28 03:33:27;;;;;;;1.93;1.40;;;11.30;97.30;;;;;;5094913;28;20479;-83
2022/07/28 03:35:57;;;;;;;1.60;1.50;;;11.30;97.30;;;;;;5094594;28;20441;-83
2022/07/28 03:38:27;;;;;;;2.33;2.07;;;11.20;97.30;;;;;;5094900;28;20429;-83
2022/07/28 03:40:55;;;;;;;1.83;1.80;;;11.20;97.30;;;;;;5095072;28;20393;-83
2022/07/28 03:43:24;;;;;;;1.73;1.20;;;11.20;97.30;;;;;;5094914;28;20405;-83
2022/07/28 03:45:50;;;;;;;1.20;1.10;;;11.30;97.30;;;;;;5094792;28;20453;-83
2022/07/28 03:48:16;;;;;;;1.20;1.10;;;11.30;97.30;;;;;;5094764;28;20435;-83
2022/07/28 03:50:41;;;;;;;3.43;1.73;;;11.30;97.30;;;;;;5094517;28;20222;-83
2022/07/28 03:53:20;;;;;;;4.30;1.53;;;11.30;97.30;;;;;;5094537;28;20417;-83
2022/07/28 03:55:49;;;;;;;8.60;2.50;;;11.30;97.30;;;;;;5094158;28;20173;-83
2022/07/28 03:58:16;;;;;;;1.47;1.37;;;11.30;97.30;;;;;;5093634;28;20605;-83
2022/07/28 04:00:41;;;;;;;1.40;1.30;;;11.30;97.30;;;;;;5093887;28;20409;-83
2022/07/28 04:03:07;;;;;;;2.93;2.73;;;11.30;97.30;;;;;;5094267;28;20405;-83
2022/07/28 04:05:32;;;;;;;1.60;1.47;;;11.40;97.30;;;;;;5094961;28;20218;-83
2022/07/28 04:07:58;;;;;;;1.10;1.00;;;11.40;97.30;;;;;;5094103;28;20319;-83
2022/07/28 04:10:24;;;;;;;1.30;1.20;;;11.40;97.30;;;;;;5093563;28;20227;-83
2022/07/28 04:12:53;;;;;;;1.40;1.30;;;11.40;97.30;;;;;;5093900;28;20491;-83
2022/07/28 04:15:19;;;;;;;1.23;1.13;;;11.50;97.30;;;;;;5093911;28;20201;-83
2022/07/28 04:17:47;;;;;;;2.60;1.97;;;11.50;97.30;;;;;;5087296;28;20970;-83
2022/07/28 04:20:13;;;;;;;1.40;1.30;;;11.60;97.30;;;;;;5073701;28;20171;-83
2022/07/28 04:22:42;;;;;;;2.13;1.30;;;11.60;97.30;;;;;;5074213;28;20446;-83
2022/07/28 04:25:08;;;;;;;1.47;1.37;;;11.60;97.30;;;;;;5073684;28;20754;-83
2022/07/28 04:27:35;;;;;;;2.07;1.93;;;11.70;97.30;;;;;;5074055;28;20421;-83
2022/07/28 04:30:12;;;;;;;2.13;1.57;;;11.70;97.30;;;;;;5073318;28;20425;-85
2022/07/28 04:32:41;;;;;;;1.50;1.40;;;11.80;97.30;;;;;;5087557;28;20516;-82
2022/07/28 04:35:08;;;;;;;1.50;1.40;;;11.90;97.30;;;;;;5093556;28;20925;-83
2022/07/28 04:37:33;;;;;;;1.40;1.30;;;11.90;97.30;;;;;;5093844;28;20892;-83
2022/07/28 04:39:59;;;;;;;1.20;1.10;;;12.00;97.30;;;;;;5093698;28;20464;-83
2022/07/28 04:42:25;;;;;;;2.07;1.93;;;12.10;97.30;;;;;;5093694;28;20628;-84
2022/07/28 04:44:50;;;;;;;1.27;1.17;;;12.20;97.30;;;;;;5092959;28;20170;-83
2022/07/28 04:47:16;;;;;;;2.87;1.70;;;12.20;97.30;;;;;;5093170;28;20182;-83
2022/07/28 04:49:41;;;;;;;1.53;1.43;;;12.30;97.30;;;;;;5092918;28;20205;-86
2022/07/28 04:52:07;;;;;;;1.47;1.37;;;12.40;97.30;;;;;;5093121;28;20189;-83
2022/07/28 04:54:34;;;;;;;1.60;1.50;;;12.40;97.30;;;;;;5093371;28;20650;-83
2022/07/28 04:56:59;;;;;;;1.63;1.53;;;12.50;97.30;;;;;;5093092;28;20213;-84
2022/07/28 04:59:25;;;;;;;1.30;1.20;;;12.50;97.30;;;;;;5093488;28;20450;-84
2022/07/28 05:01:56;;;;;;;1.80;1.40;;;12.60;97.30;;;;;;5094225;28;20194;-83
2022/07/28 05:04:22;;;;;;;2.60;1.90;;;12.60;97.30;;;;;;5093776;28;20405;-83
2022/07/28 05:06:48;;;;;;;2.07;1.30;;;12.70;97.30;;;;;;5091660;28;20454;-83
2022/07/28 05:09:13;;;;;;;1.67;1.57;;;12.80;97.30;;;;;;5091364;28;20945;-83
2022/07/28 05:11:39;;;;;;;2.53;2.33;;;12.90;97.30;;;;;;5092244;28;20651;-83
2022/07/28 05:14:04;;;;;;;1.43;1.33;;;12.90;97.30;;;;;;5091614;28;20182;-83
2022/07/28 05:16:30;;;;;;;1.10;1.00;;;13.00;97.30;;;;;;5091218;28;20202;-83
2022/07/28 05:18:55;;;;;;;1.50;1.40;;;13.10;97.30;;;;;;5097090;28;20440;-83
2022/07/28 05:21:21;;;;;;;2.40;2.07;;;13.20;97.30;;;;;;5093620;28;20178;-84
2022/07/28 05:23:47;;;;;;;1.17;1.17;;;13.30;97.30;;;;;;5093452;28;20655;-84
2022/07/28 05:26:13;;;;;;;1.70;1.60;;;13.40;97.30;;;;;;5093686;28;20206;-83
2022/07/28 05:28:39;;;;;;;1.77;1.67;;;13.50;97.30;;;;;;5073820;28;20215;-84
2022/07/28 05:31:06;;;;;;;2.17;1.43;;;13.60;97.30;;;;;;5073826;28;20418;-83
2022/07/28 05:33:33;;;;;;;1.43;1.40;;;13.70;97.30;;;;;;5073554;28;20414;-83
2022/07/28 05:35:58;;;;;;;3.10;2.47;;;13.70;97.30;;;;;;5073080;28;20810;-82
2022/07/28 05:38:25;;;;;;;1.77;1.67;;;13.80;97.30;;;;;;5074371;28;20437;-83
2022/07/28 05:40:51;;;;;;;2.17;1.80;;;13.90;97.30;;;;;;5073647;28;20557;-83
2022/07/28 05:43:17;;;;;;;1.63;1.40;;;14.00;97.30;;;;;;5073976;28;20410;-81
2022/07/28 05:45:43;;;;;;;1.40;1.30;;;14.10;97.30;;;;;;5073948;28;20913;-83
2022/07/28 05:48:09;;;;;;;1.77;1.67;;;14.10;97.30;;;;;;5073419;28;20452;-83
2022/07/28 05:50:35;;;;;;;5.20;2.07;;;14.20;97.30;;;;;;5075186;28;20801;-83
2022/07/28 05:53:00;;;;;;;1.80;1.50;;;14.30;97.30;;;;;;5073627;28;20192;-82
2022/07/28 05:55:26;;;;;;;1.30;1.20;;;14.40;97.30;;;;;;5073339;28;20228;-83
2022/07/28 05:57:53;;;;;;;1.27;1.17;;;14.40;97.30;;;;;;5073992;28;20202;-83
2022/07/28 06:00:20;;;;;;;1.27;1.17;;;14.50;97.30;;;;;;5073795;28;20254;-83
2022/07/28 06:02:50;;;;;;;1.20;1.10;;;14.60;97.30;;;;;;5073800;28;20417;-83
2022/07/28 06:05:18;;;;;;;2.13;1.30;;;14.60;97.30;;;;;;5076060;28;20522;-81
2022/07/28 06:07:44;;;;;;;1.17;1.07;;;14.70;97.30;;;;;;5073226;28;20845;-83
2022/07/28 06:10:12;;;;;;;1.40;1.30;;;14.80;97.30;;;;;;5073000;28;20417;-83
2022/07/28 06:12:40;;;;;;;1.10;1.00;;;14.80;97.30;;;;;;5073234;28;20419;-83
2022/07/28 06:15:07;;;;;;;1.50;1.20;;;14.90;97.30;;;;;;5073004;28;20425;-83
2022/07/28 06:17:32;;;;;;;2.50;1.70;;;15.00;97.30;;;;;;5072729;28;20465;-83
2022/07/28 06:19:58;;;;;;;1.73;1.67;;;15.00;97.30;;;;;;5072748;28;20443;-83
2022/07/28 06:22:23;;;;;;;4.53;1.63;;;15.10;97.10;;;;;;5073193;28;20175;-83
2022/07/28 06:24:49;;;;;;;1.40;1.30;;;15.10;97.20;;;;;;5072225;28;20175;-84
2022/07/28 06:27:14;;;;;;;1.40;1.30;;;15.20;97.10;;;;;;5081288;23;20231;-83
2022/07/28 06:29:40;;;;;;;1.30;1.20;;;15.20;96.80;;;;;;5046763;28;20196;-83
2022/07/28 06:32:05;;;;;;;1.10;1.00;;;15.20;96.40;;;;;;5042481;28;20271;-83
2022/07/28 06:34:31;;;;;;;1.33;1.23;;;15.30;96.40;;;;;;5056639;28;20406;-82
2022/07/28 06:36:56;;;;;;;11.60;1.60;;;15.30;96.50;;;;;;5058705;28;20203;-83
2022/07/28 06:39:22;;;;;;;1.33;1.10;;;15.30;96.50;;;;;;5047599;28;20240;-83
2022/07/28 06:41:48;;;;;;;2.30;1.53;;;15.40;96.60;;;;;;5056370;28;20194;-82
2022/07/28 06:44:13;;;;;;;1.50;1.40;;;15.40;95.90;;;;;;5050683;28;20168;-83
2022/07/28 06:46:39;;;;;;;1.47;1.37;;;15.40;96.00;;;;;;5051450;28;20178;-83
2022/07/28 06:49:04;;;;;;;4.90;1.40;;;15.40;95.90;;;;;;5051101;28;20306;-82
2022/07/28 06:51:31;;;;;;;4.40;1.43;;;15.50;95.90;;;;;;5052459;28;20649;-84
2022/07/28 06:53:57;;;;;;;2.17;1.70;;;15.50;95.70;;;;;;5046938;28;20183;-85
2022/07/28 06:56:22;;;;;;;1.90;1.53;;;15.50;95.70;;;;;;5042904;28;20451;-84
2022/07/28 06:58:48;;;;;;;1.27;1.17;;;15.50;95.50;;;;;;5043820;28;20438;-84
2022/07/28 07:01:14;;;;;;;3.30;1.53;;;15.60;95.30;;;;;;5049653;28;20660;-84
2022/07/28 07:03:41;;;;;;;2.77;2.23;;;15.60;95.10;;;;;;5056837;28;20270;-84
2022/07/28 07:06:07;;;;;;;2.70;1.10;;;15.70;95.00;;;;;;5043567;28;20414;-85
2022/07/28 07:08:33;;;;;;;1.37;1.27;;;15.80;94.60;;;;;;5057117;28;20926;-85
2022/07/28 07:10:59;;;;;;;1.30;1.30;;;15.90;94.50;;;;;;5056832;28;20499;-84
2022/07/28 07:13:25;;;;;;;2.63;1.77;;;15.90;94.00;;;;;;5043566;28;20419;-84
2022/07/28 07:15:51;;;;;;;1.83;1.73;;;16.00;93.50;;;;;;5043352;28;20406;-85
2022/07/28 07:18:16;;;;;;;1.93;1.47;;;16.10;92.90;;;;;;5056239;28;20215;-84
2022/07/28 07:20:42;;;;;;;1.40;1.30;;;16.20;92.80;;;;;;5056841;28;20181;-84
2022/07/28 07:23:07;;;;;;;1.77;1.47;;;16.30;92.80;;;;;;5044058;28;20626;-84
2022/07/28 07:25:33;;;;;;;1.50;1.40;;;16.30;92.70;;;;;;5057618;28;20176;-84
2022/07/28 07:27:59;;;;;;;3.80;1.70;;;16.40;92.40;;;;;;5056829;28;20235;-84
2022/07/28 07:30:24;;;;;;;1.80;1.73;;;16.50;92.50;;;;;;5050269;28;20179;-85
2022/07/28 07:32:50;;;;;;;1.20;1.20;;;16.60;91.90;;;;;;5036861;28;20179;-84
2022/07/28 07:35:15;;;;;;;1.23;1.13;;;16.70;92.00;;;;;;5038395;28;20188;-84
2022/07/28 07:37:41;;;;;;;1.30;1.20;;;16.80;91.60;;;;;;5048428;28;20261;-84
2022/07/28 07:40:07;;;;;;;2.20;1.30;;;17.00;91.40;;;;;;5056572;28;20171;-84
2022/07/28 07:42:33;;;;;;;2.27;1.67;;;17.00;91.00;;;;;;5044324;28;20184;-84
2022/07/28 07:44:59;;;;;;;4.83;3.13;;;17.20;91.70;;;;;;5055582;28;20950;-84
2022/07/28 07:47:24;;;;;;;3.77;1.87;;;17.30;91.10;;;;;;5056910;28;20180;-84
2022/07/28 07:49:50;;;;;;;1.40;1.30;;;17.40;90.80;;;;;;5050280;28;20207;-84
2022/07/28 07:52:16;;;;;;;1.50;1.40;;;17.50;90.00;;;;;;5048635;28;20445;-84
2022/07/28 07:54:42;;;;;;;4.73;1.60;;;17.60;89.90;;;;;;5056026;28;20582;-84
2022/07/28 07:57:09;;;;;;;1.20;1.10;;;17.70;89.60;;;;;;5056886;28;20204;-84
2022/07/28 07:59:34;;;;;;;4.10;1.50;;;17.80;89.70;;;;;;5038471;28;20439;-85
2022/07/28 08:02:00;;;;;;;1.47;1.43;;;17.90;89.40;;;;;;5049103;28;20464;-84
2022/07/28 08:04:25;;;;;;;2.40;1.73;;;18.00;88.80;;;;;;5051900;28;20654;-84
2022/07/28 08:06:52;;;;;;;1.00;0.90;;;18.10;88.90;;;;;;5048928;28;20192;-84
2022/07/28 08:09:18;;;;;;;2.37;2.00;;;18.30;88.80;;;;;;5043346;28;20271;-85
2022/07/28 08:11:44;;;;;;;2.80;1.80;;;18.40;87.70;;;;;;5057492;28;20442;-84
2022/07/28 08:14:09;;;;;;;1.33;1.23;;;18.50;87.80;;;;;;5050540;28;20430;-84
2022/07/28 08:16:35;;;;;;;1.33;1.23;;;18.70;88.30;;;;;;5037363;28;20277;-84
2022/07/28 08:19:01;;;;;;;1.10;1.00;;;18.80;87.50;;;;;;5054129;28;20282;-84
2022/07/28 08:21:27;;;;;;;5.23;1.67;;;19.00;86.90;;;;;;5057779;28;20239;-84
2022/07/28 08:23:57;;;;;;;2.30;1.40;;;19.10;85.40;;;;;;5056822;28;20469;-84
2022/07/28 08:26:23;;;;;;;1.20;1.10;;;19.10;85.70;;;;;;5043910;28;20455;-84
2022/07/28 08:28:49;;;;;;;5.97;2.20;;;19.30;85.70;;;;;;5035698;28;20455;-84
2022/07/28 08:31:16;;;;;;;1.90;1.30;;;19.30;84.60;;;;;;5049523;28;20418;-84
2022/07/28 08:33:42;;;;;;;4.60;2.23;;;19.50;84.60;;;;;;5056473;28;20180;-84
2022/07/28 08:36:08;;;;;;;1.93;1.77;;;19.60;84.40;;;;;;5044788;28;20755;-84
2022/07/28 08:38:34;;;;;;;2.50;2.13;;;19.80;84.20;;;;;;5037637;28;20928;-84
2022/07/28 08:41:03;;;;;;;1.10;1.03;;;19.90;83.60;;;;;;5048446;28;20184;-84
2022/07/28 08:43:38;;;;;;;2.90;1.20;;;20.00;83.60;;;;;;5042803;28;20176;-84
2022/07/28 08:46:05;;;;;;;1.63;1.53;;;20.10;83.20;;;;;;5053944;28;20520;-84
2022/07/28 08:48:33;;;;;;;1.50;1.40;;;20.30;83.20;;;;;;5043578;28;20434;-84
2022/07/28 08:51:05;;;;;;;1.60;1.50;;;20.40;83.40;;;;;;5054066;28;20483;-83
2022/07/28 08:53:31;;;;;;;1.23;1.20;;;20.60;82.40;;;;;;5043686;28;20418;-84
2022/07/28 08:56:05;;;;;;;1.97;1.40;;;20.70;81.40;;;;;;5041890;28;20469;-84
2022/07/28 08:58:32;;;;;;;1.30;1.20;;;20.80;81.40;;;;;;5044735;28;21056;-84
2022/07/28 09:00:58;;;;;;;1.43;1.23;;;20.90;80.40;;;;;;5047321;28;20403;-85
2022/07/28 09:03:25;;;;;;;1.13;1.07;;;20.90;79.30;;;;;;5044700;28;20414;-85
2022/07/28 09:05:51;;;;;;;1.10;1.00;;;20.90;79.00;;;;;;5041966;28;20403;-84
2022/07/28 09:08:18;;;;;;;1.20;1.10;;;20.90;79.90;;;;;;5055492;28;20546;-84
2022/07/28 09:10:44;;;;;;;1.20;1.10;;;21.00;79.80;;;;;;5042505;28;20411;-84
2022/07/28 09:13:10;;;;;;;5.80;2.57;;;21.20;80.20;;;;;;5044850;28;20430;-84
2022/07/28 09:15:36;;;;;;;1.00;1.00;;;21.30;79.30;;;;;;5052045;28;21052;-84
2022/07/28 09:18:02;;;;;;;1.33;1.23;;;21.40;79.00;;;;;;5054906;28;20728;-83
2022/07/28 09:20:28;;;;;;;1.10;1.00;;;21.60;79.50;;;;;;5037600;28;20422;-84
2022/07/28 09:22:57;;;;;;;1.73;1.17;;;21.70;78.40;;;;;;5036327;28;20423;-84
2022/07/28 09:25:23;;;;;;;4.63;1.80;;;21.80;78.20;;;;;;5052134;28;20199;-84
2022/07/28 09:27:50;;;;;;;1.10;1.00;;;21.90;77.10;;;;;;5053765;28;20473;-84
2022/07/28 09:30:29;;;;;;;1.57;1.47;;;21.90;76.70;;;;;;5049288;28;20964;-84
2022/07/28 09:33:17;;;;;;;1.00;0.90;;;22.00;76.70;;;;;;5034262;28;20936;-85
2022/07/28 09:35:49;;;;;;;1.20;1.10;;;22.00;75.80;;;;;;5044031;28;20419;-84
2022/07/28 09:38:15;;;;;;;1.30;1.23;;;22.00;76.60;;;;;;5037114;28;20466;-84
2022/07/28 09:40:42;;;;;;;1.10;0.90;;;22.10;76.30;;;;;;5043858;28;20846;-84
2022/07/28 09:43:10;;;;;;;2.63;1.20;;;22.10;75.30;;;;;;5049831;28;20489;-84
2022/07/28 09:45:36;;;;;;;5.17;1.27;;;22.10;74.60;;;;;;5053303;28;20441;-84
2022/07/28 09:48:10;;;;;;;0.80;0.80;;;22.20;75.50;;;;;;5039952;28;20442;-84
2022/07/28 09:50:36;;;;;;;1.30;0.93;;;22.30;75.90;;;;;;5052776;28;20183;-85
2022/07/28 09:53:19;;;;;;;2.67;1.30;;;22.50;74.20;;;;;;5046079;28;20415;-85
2022/07/28 09:55:59;;;;;;;1.17;1.10;;;22.60;74.40;;;;;;5045667;28;20426;-84
2022/07/28 09:58:26;;;;;;;1.30;1.20;;;22.80;75.00;;;;;;5051041;28;20826;-85
2022/07/28 10:01:08;;;;;;;1.63;1.53;;;22.90;74.50;;;;;;5036273;28;20482;-85
2022/07/28 10:03:39;;;;;;;1.20;1.10;;;23.10;74.80;;;;;;5036173;28;20999;-85
2022/07/28 10:06:10;;;;;;;8.40;1.40;;;23.10;73.50;;;;;;5056121;28;20418;-84
2022/07/28 10:08:42;;;;;;;1.10;1.00;;;23.10;73.90;;;;;;5058168;28;20997;-84
2022/07/28 10:11:09;;;;;;;7.60;2.53;;;23.10;74.20;;;;;;5036717;28;20425;-84
2022/07/28 10:13:50;;;;;;;1.00;0.90;;;23.10;73.40;;;;;;5038808;28;20423;-84
2022/07/28 10:16:15;;;;;;;7.30;1.97;;;23.10;73.10;;;;;;5048549;28;20469;-84
2022/07/28 10:18:41;;;;;;;1.43;1.40;;;23.20;73.20;;;;;;5038083;28;20975;-84
2022/07/28 10:21:08;;;;;;;5.17;1.20;;;23.30;74.20;;;;;;5046544;28;20186;-84
2022/07/28 10:23:41;;;;;;;1.23;1.13;;;23.40;74.40;;;;;;5043944;28;20195;-84
2022/07/28 10:26:09;;;;;;;1.30;1.07;;;23.50;73.80;;;;;;5059286;28;20423;-82
2022/07/28 10:28:45;;;;;;;1.00;0.90;;;23.60;72.50;;;;;;5057033;28;20449;-84
2022/07/28 10:31:16;;;;;;;1.10;1.00;;;23.70;73.00;;;;;;5056812;28;20406;-84
2022/07/28 10:33:48;;;;;;;1.33;1.20;;;23.70;72.30;;;;;;5056597;28;20419;-83
2022/07/28 10:36:17;;;;;;;1.23;1.00;;;23.70;72.90;;;;;;5058205;28;20446;-84
2022/07/28 10:38:43;;;;;;;3.73;1.87;;;23.70;72.20;;;;;;5049716;28;20830;-84
2022/07/28 10:41:11;;;;;;;4.17;1.97;;;23.80;71.70;;;;;;5050337;28;20955;-84
2022/07/28 10:43:37;;;;;;;2.20;1.47;;;23.70;71.30;;;;;;5037163;28;20419;-84
2022/07/28 10:46:04;;;;;;;1.73;1.30;;;23.80;71.90;;;;;;5051094;28;20442;-84
2022/07/28 10:48:30;;;;;;;1.07;0.97;;;23.90;70.20;;;;;;5046033;28;21087;-84
2022/07/28 10:50:56;;;;;;;1.10;1.00;;;24.00;71.40;;;;;;5055358;28;20438;-84
2022/07/28 10:53:47;;;;;;;1.63;1.10;;;24.10;71.90;;;;;;5043922;28;20692;-84
2022/07/28 10:56:22;;;;;;;1.27;1.17;;;24.20;71.10;;;;;;5052003;28;20839;-84
2022/07/28 10:59:18;;;;;;;1.37;1.10;;;24.30;69.90;;;;;;5048776;28;20437;-84
2022/07/28 11:01:43;;;;;;;1.13;1.10;;;24.20;69.80;;;;;;5047806;28;20414;-84
2022/07/28 11:04:47;;;;;;;1.20;1.13;;;24.20;70.80;;;;;;5052221;28;20415;-84
2022/07/28 11:07:19;;;;;;;1.63;1.10;;;24.30;70.80;;;;;;5051731;28;20180;-84
2022/07/28 11:09:48;;;;;;;0.90;0.80;;;24.40;70.70;;;;;;5047625;28;20494;-84
2022/07/28 11:12:15;;;;;;;1.20;1.10;;;24.50;69.80;;;;;;5040431;28;20415;-84
2022/07/28 11:14:42;;;;;;;1.20;1.10;;;24.50;70.50;;;;;;5056190;28;20418;-84
2022/07/28 11:17:09;;;;;;;2.40;1.73;;;24.60;70.00;;;;;;5052453;28;20442;-84
2022/07/28 11:19:44;;;;;;;0.90;0.80;;;24.60;69.40;;;;;;5037479;28;20439;-83
2022/07/28 11:22:17;;;;;;;1.00;1.00;;;24.60;69.80;;;;;;5050416;28;20426;-84
2022/07/28 11:25:00;;;;;;;2.50;1.43;;;24.60;69.50;;;;;;5049067;28;20410;-83
2022/07/28 11:27:41;;;;;;;0.97;0.93;;;24.80;69.80;;;;;;5044274;28;21006;-83
2022/07/28 11:30:31;;;;;;;1.50;1.40;;;24.80;69.00;;;;;;5040925;28;20533;-84
2022/07/28 11:33:05;;;;;;;1.47;1.33;;;24.80;68.30;;;;;;5055658;28;20422;-84
2022/07/28 11:35:52;;;;;;;1.33;0.90;;;24.80;69.30;;;;;;5054552;28;20426;-85
2022/07/28 11:38:17;;;;;;;1.37;1.37;;;24.80;69.30;;;;;;5042084;28;20462;-84
2022/07/28 11:40:47;;;;;;;2.90;1.50;;;24.80;68.20;;;;;;5055333;28;20425;-84
2022/07/28 11:43:31;;;;;;;1.10;1.00;;;24.80;69.00;;;;;;5037076;28;20932;-84
2022/07/28 11:46:05;;;;;;;1.03;0.97;;;24.70;69.60;;;;;;5035424;28;20814;-84
2022/07/28 11:48:32;;;;;;;1.53;1.17;;;24.80;69.30;;;;;;5034669;28;20447;-84
2022/07/28 11:51:03;;;;;;;1.97;1.00;;;24.80;69.00;;;;;;5036999;28;20838;-84
2022/07/28 11:53:35;;;;;;;1.20;1.10;;;25.00;69.40;;;;;;5056312;28;20433;-84
2022/07/28 11:56:22;;;;;;;1.20;1.13;;;25.10;69.20;;;;;;5051807;28;20427;-84
2022/07/28 11:59:02;;;;;;;1.20;1.10;;;25.40;68.70;;;;;;5047905;28;20442;-84
2022/07/28 12:01:29;;;;;;;1.50;1.40;;;25.50;67.10;;;;;;5042308;28;20431;-84
2022/07/28 12:03:57;;;;;;;1.00;0.90;;;25.70;68.20;;;;;;5041530;28;20433;-84
2022/07/28 12:06:24;;;;;;;4.00;1.20;;;25.90;67.40;;;;;;5053824;28;20856;-84
2022/07/28 12:09:02;;;;;;;1.20;1.10;;;26.00;67.90;;;;;;5039083;28;20533;-84
2022/07/28 12:11:39;;;;;;;4.63;1.10;;;26.10;65.80;;;;;;5033898;28;20434;-84
2022/07/28 12:14:07;;;;;;;1.10;1.10;;;26.30;68.70;;;;;;5053087;28;20505;-84
2022/07/28 12:16:39;;;;;;;1.00;0.90;;;26.50;66.90;;;;;;5053449;28;20536;-85
2022/07/28 12:19:05;;;;;;;1.33;0.90;;;26.50;66.50;;;;;;5042331;28;20962;-84
2022/07/28 12:21:46;;;;;;;5.53;0.90;;;26.60;66.70;;;;;;5040959;28;20407;-84
2022/07/28 12:24:17;;;;;;;1.00;0.90;;;26.70;66.70;;;;;;5043684;28;20757;-84
2022/07/28 12:26:43;;;;;;;1.10;0.90;;;26.70;65.50;;;;;;5049901;28;20462;-84
2022/07/28 12:29:20;;;;;;;1.17;1.07;;;26.70;65.80;;;;;;5058059;23;20537;-92
2022/07/28 12:32:10;;;;;;;2.83;1.30;;;26.70;65.20;;;;;;5036252;28;20965;-90
2022/07/28 12:34:49;;;;;;;0.90;0.80;;;26.80;64.40;;;;;;5030825;28;20558;-89
2022/07/28 12:37:21;;;;;;;0.87;0.80;;;26.80;66.70;;;;;;5029349;28;20469;-90
2022/07/28 12:39:50;;;;;;;1.20;1.17;;;26.90;63.50;;;;;;5029152;28;20508;-90
2022/07/28 12:42:19;;;;;;;1.00;0.90;;;26.90;64.20;;;;;;5028627;28;20940;-90
2022/07/28 12:45:00;;;;;;;2.27;1.27;;;27.10;65.20;;;;;;5028881;28;20497;-90
2022/07/28 12:47:30;;;;;;;0.90;0.90;;;27.10;64.80;;;;;;5029482;28;20434;-90
2022/07/28 12:50:20;;;;;;;0.90;0.90;;;27.20;64.90;;;;;;5030386;28;20497;-90
2022/07/28 12:53:11;;;;;;;0.90;0.90;;;27.30;64.00;;;;;;5030347;28;20435;-90
2022/07/28 12:55:42;;;;;;;1.00;0.90;;;27.50;63.80;;;;;;5012885;28;20791;-90
2022/07/28 12:58:28;;;;;;;2.00;1.40;;;27.60;64.80;;;;;;5011202;28;20472;-90
2022/07/28 13:01:07;;;;;;;1.10;1.00;;;27.60;62.40;;;;;;5009568;28;20826;-90